sensor_id;sensor_type;location;lat;lon;timestamp;temperature;humidity
2024;DHT22;1016;48.770;9.154;2022-10-18T00:00:24;18.20;99.90
2024;DHT22;1016;48.770;9.154;2022-10-18T00:02:50;18.30;99.90
2024;DHT22;1016;48.770;9.154;2022-10-18T00:05:16;18.20;99.90
2024;DHT22;1016;48.770;9.154;2022-10-18T00:07:41;18.20;99.90
2024;DHT22;1016;48.770;9.154;2022-10-18T00:10:07;18.20;99.90
2024;DHT22;1016;48.770;9.154;2022-10-18T00:12:34;18.20;99.90
2024;DHT22;1016;48.770;9.154;2022-10-18T00:15:01;18.10;99.90
2024;DHT22;1016;48.770;9.154;2022-10-18T00:17:27;18.10;99.90
2024;DHT22;1016;48.770;9.154;2022-10-18T00:19:52;18.10;99.90
2024;DHT22;1016;48.770;9.154;2022-10-18T00:22:18;18.20;99.90
2024;DHT22;1016;48.770;9.154;2022-10-18T00:24:43;18.20;99.90
2024;DHT22;1016;48.770;9.154;2022-10-18T00:27:09;18.20;99.90
2024;DHT22;1016;48.770;9.154;2022-10-18T00:29:34;18.20;99.90
2024;DHT22;1016;48.770;9.154;2022-10-18T00:32:00;18.10;99.90
2024;DHT22;1016;48.770;9.154;2022-10-18T00:34:26;18.10;99.90
2024;DHT22;1016;48.770;9.154;2022-10-18T00:36:51;18.10;99.90
2024;DHT22;1016;48.770;9.154;2022-10-18T00:39:19;18.10;99.90
2024;DHT22;1016;48.770;9.154;2022-10-18T00:41:45;18.00;99.90
2024;DHT22;1016;48.770;9.154;2022-10-18T00:46:42;18.00;99.90
2024;DHT22;1016;48.770;9.154;2022-10-18T00:49:18;18.00;99.90
2024;DHT22;1016;48.770;9.154;2022-10-18T00:51:55;17.90;99.90
2024;DHT22;1016;48.770;9.154;2022-10-18T00:54:22;17.90;99.90
2024;DHT22;1016;48.770;9.154;2022-10-18T00:56:48;17.90;99.90
2024;DHT22;1016;48.770;9.154;2022-10-18T00:59:16;17.90;99.90
2024;DHT22;1016;48.770;9.154;2022-10-18T01:01:42;17.80;99.90
2024;DHT22;1016;48.770;9.154;2022-10-18T01:04:08;17.90;99.90
2024;DHT22;1016;48.770;9.154;2022-10-18T01:06:44;17.90;99.90
2024;DHT22;1016;48.770;9.154;2022-10-18T01:09:22;17.90;99.90
2024;DHT22;1016;48.770;9.154;2022-10-18T01:14:44;17.90;99.90
2024;DHT22;1016;48.770;9.154;2022-10-18T01:17:38;17.90;99.90
2024;DHT22;1016;48.770;9.154;2022-10-18T01:29:04;17.80;99.90
2024;DHT22;1016;48.770;9.154;2022-10-18T01:31:42;17.90;99.90
2024;DHT22;1016;48.770;9.154;2022-10-18T01:34:13;17.90;99.90
2024;DHT22;1016;48.770;9.154;2022-10-18T01:36:45;17.90;99.90
2024;DHT22;1016;48.770;9.154;2022-10-18T01:39:15;17.90;99.90
2024;DHT22;1016;48.770;9.154;2022-10-18T01:41:43;17.90;99.90
2024;DHT22;1016;48.770;9.154;2022-10-18T01:44:15;17.90;99.90
2024;DHT22;1016;48.770;9.154;2022-10-18T01:46:41;17.90;99.90
2024;DHT22;1016;48.770;9.154;2022-10-18T01:49:08;17.90;99.90
2024;DHT22;1016;48.770;9.154;2022-10-18T01:51:34;17.90;99.90
2024;DHT22;1016;48.770;9.154;2022-10-18T01:54:00;17.90;99.90
2024;DHT22;1016;48.770;9.154;2022-10-18T01:56:30;17.90;99.90
2024;DHT22;1016;48.770;9.154;2022-10-18T01:59:03;17.90;99.90
2024;DHT22;1016;48.770;9.154;2022-10-18T02:04:48;17.90;99.90
2024;DHT22;1016;48.770;9.154;2022-10-18T02:10:13;17.90;99.90
2024;DHT22;1016;48.770;9.154;2022-10-18T02:12:43;17.90;99.90
2024;DHT22;1016;48.770;9.154;2022-10-18T02:15:13;17.90;99.90
2024;DHT22;1016;48.770;9.154;2022-10-18T02:17:40;17.90;99.90
2024;DHT22;1016;48.770;9.154;2022-10-18T02:20:08;17.90;99.90
2024;DHT22;1016;48.770;9.154;2022-10-18T02:22:35;17.90;99.90
2024;DHT22;1016;48.770;9.154;2022-10-18T02:25:04;17.90;99.90
2024;DHT22;1016;48.770;9.154;2022-10-18T02:27:31;17.90;99.90
2024;DHT22;1016;48.770;9.154;2022-10-18T02:29:57;17.90;99.90
2024;DHT22;1016;48.770;9.154;2022-10-18T02:32:42;17.90;99.90
2024;DHT22;1016;48.770;9.154;2022-10-18T02:35:51;17.90;99.90
2024;DHT22;1016;48.770;9.154;2022-10-18T02:38:22;17.90;99.90
2024;DHT22;1016;48.770;9.154;2022-10-18T02:40:49;17.90;99.90
2024;DHT22;1016;48.770;9.154;2022-10-18T02:43:14;17.90;99.90
2024;DHT22;1016;48.770;9.154;2022-10-18T02:45:40;17.90;99.90
2024;DHT22;1016;48.770;9.154;2022-10-18T02:48:06;18.00;99.90
2024;DHT22;1016;48.770;9.154;2022-10-18T02:50:32;18.00;99.90
2024;DHT22;1016;48.770;9.154;2022-10-18T02:52:57;18.00;99.90
2024;DHT22;1016;48.770;9.154;2022-10-18T02:55:23;18.00;99.90
2024;DHT22;1016;48.770;9.154;2022-10-18T02:57:48;18.00;99.90
2024;DHT22;1016;48.770;9.154;2022-10-18T03:00:14;18.00;99.90
2024;DHT22;1016;48.770;9.154;2022-10-18T03:02:39;18.00;99.90
2024;DHT22;1016;48.770;9.154;2022-10-18T03:05:05;18.00;99.90
2024;DHT22;1016;48.770;9.154;2022-10-18T03:07:31;18.00;99.90
2024;DHT22;1016;48.770;9.154;2022-10-18T03:09:56;18.00;99.90
2024;DHT22;1016;48.770;9.154;2022-10-18T03:12:22;18.00;99.90
2024;DHT22;1016;48.770;9.154;2022-10-18T03:14:47;18.00;99.90
2024;DHT22;1016;48.770;9.154;2022-10-18T03:17:13;18.00;99.90
2024;DHT22;1016;48.770;9.154;2022-10-18T03:19:38;18.00;99.90
2024;DHT22;1016;48.770;9.154;2022-10-18T03:22:04;18.00;99.90
2024;DHT22;1016;48.770;9.154;2022-10-18T03:24:30;18.00;99.90
2024;DHT22;1016;48.770;9.154;2022-10-18T03:26:55;18.00;99.90
2024;DHT22;1016;48.770;9.154;2022-10-18T03:29:21;18.00;99.90
2024;DHT22;1016;48.770;9.154;2022-10-18T03:31:46;18.00;99.90
2024;DHT22;1016;48.770;9.154;2022-10-18T03:34:12;18.00;99.90
2024;DHT22;1016;48.770;9.154;2022-10-18T03:36:37;18.00;99.90
2024;DHT22;1016;48.770;9.154;2022-10-18T03:39:05;18.00;99.90
2024;DHT22;1016;48.770;9.154;2022-10-18T03:41:30;18.00;99.90
2024;DHT22;1016;48.770;9.154;2022-10-18T03:43:56;18.00;99.90
2024;DHT22;1016;48.770;9.154;2022-10-18T03:46:21;18.10;99.90
2024;DHT22;1016;48.770;9.154;2022-10-18T03:48:47;18.10;99.90
2024;DHT22;1016;48.770;9.154;2022-10-18T03:51:12;18.10;99.90
2024;DHT22;1016;48.770;9.154;2022-10-18T03:53:38;18.10;99.90
2024;DHT22;1016;48.770;9.154;2022-10-18T03:56:03;18.10;99.90
2024;DHT22;1016;48.770;9.154;2022-10-18T03:58:29;18.10;99.90
2024;DHT22;1016;48.770;9.154;2022-10-18T04:00:54;18.10;99.90
2024;DHT22;1016;48.770;9.154;2022-10-18T04:03:21;18.00;99.90
2024;DHT22;1016;48.770;9.154;2022-10-18T04:05:47;18.00;99.90
2024;DHT22;1016;48.770;9.154;2022-10-18T04:08:14;18.00;99.90
2024;DHT22;1016;48.770;9.154;2022-10-18T04:10:40;18.00;99.90
2024;DHT22;1016;48.770;9.154;2022-10-18T04:13:06;18.00;99.90
2024;DHT22;1016;48.770;9.154;2022-10-18T04:15:32;18.00;99.90
2024;DHT22;1016;48.770;9.154;2022-10-18T04:17:58;18.00;99.90
2024;DHT22;1016;48.770;9.154;2022-10-18T04:20:24;18.00;99.90
2024;DHT22;1016;48.770;9.154;2022-10-18T04:22:51;18.00;99.90
2024;DHT22;1016;48.770;9.154;2022-10-18T04:25:16;18.00;99.90
2024;DHT22;1016;48.770;9.154;2022-10-18T04:27:42;18.00;99.90
2024;DHT22;1016;48.770;9.154;2022-10-18T04:30:08;18.00;99.90
2024;DHT22;1016;48.770;9.154;2022-10-18T04:32:34;18.00;99.90
2024;DHT22;1016;48.770;9.154;2022-10-18T04:35:01;18.00;99.90
2024;DHT22;1016;48.770;9.154;2022-10-18T04:37:26;18.00;99.90
2024;DHT22;1016;48.770;9.154;2022-10-18T04:39:52;17.90;99.90
2024;DHT22;1016;48.770;9.154;2022-10-18T04:42:17;17.90;99.90
2024;DHT22;1016;48.770;9.154;2022-10-18T04:44:43;17.90;99.90
2024;DHT22;1016;48.770;9.154;2022-10-18T04:47:08;17.80;99.90
2024;DHT22;1016;48.770;9.154;2022-10-18T04:49:34;17.80;99.90
2024;DHT22;1016;48.770;9.154;2022-10-18T04:51:59;17.80;99.90
2024;DHT22;1016;48.770;9.154;2022-10-18T04:54:25;17.80;99.90
2024;DHT22;1016;48.770;9.154;2022-10-18T04:56:51;18.00;99.90
2024;DHT22;1016;48.770;9.154;2022-10-18T04:59:16;18.20;99.90
2024;DHT22;1016;48.770;9.154;2022-10-18T05:01:42;18.30;99.90
2024;DHT22;1016;48.770;9.154;2022-10-18T05:04:08;18.40;99.90
2024;DHT22;1016;48.770;9.154;2022-10-18T05:06:33;18.40;99.90
2024;DHT22;1016;48.770;9.154;2022-10-18T05:08:59;18.50;99.90
2024;DHT22;1016;48.770;9.154;2022-10-18T05:11:24;18.50;99.90
2024;DHT22;1016;48.770;9.154;2022-10-18T05:13:50;18.50;99.90
2024;DHT22;1016;48.770;9.154;2022-10-18T05:16:15;18.50;99.90
2024;DHT22;1016;48.770;9.154;2022-10-18T05:18:41;18.50;99.90
2024;DHT22;1016;48.770;9.154;2022-10-18T05:21:07;18.50;99.90
2024;DHT22;1016;48.770;9.154;2022-10-18T05:23:33;18.50;99.90
2024;DHT22;1016;48.770;9.154;2022-10-18T05:26:03;18.50;99.90
2024;DHT22;1016;48.770;9.154;2022-10-18T05:28:29;18.60;99.90
2024;DHT22;1016;48.770;9.154;2022-10-18T05:30:58;18.60;99.90
2024;DHT22;1016;48.770;9.154;2022-10-18T05:33:24;18.60;99.90
2024;DHT22;1016;48.770;9.154;2022-10-18T05:35:49;18.60;99.90
2024;DHT22;1016;48.770;9.154;2022-10-18T05:38:15;18.60;99.90
2024;DHT22;1016;48.770;9.154;2022-10-18T05:40:40;18.60;99.90
2024;DHT22;1016;48.770;9.154;2022-10-18T05:43:06;18.60;99.90
2024;DHT22;1016;48.770;9.154;2022-10-18T05:45:31;18.60;99.90
2024;DHT22;1016;48.770;9.154;2022-10-18T05:47:57;18.60;99.90
2024;DHT22;1016;48.770;9.154;2022-10-18T05:50:22;18.60;99.90
2024;DHT22;1016;48.770;9.154;2022-10-18T05:52:48;18.60;99.90
2024;DHT22;1016;48.770;9.154;2022-10-18T05:55:13;18.50;99.90
2024;DHT22;1016;48.770;9.154;2022-10-18T05:57:39;18.50;99.90
2024;DHT22;1016;48.770;9.154;2022-10-18T06:00:05;18.50;99.90
2024;DHT22;1016;48.770;9.154;2022-10-18T06:02:30;18.50;99.90
2024;DHT22;1016;48.770;9.154;2022-10-18T06:04:56;18.50;99.90
2024;DHT22;1016;48.770;9.154;2022-10-18T06:07:22;18.50;99.90
2024;DHT22;1016;48.770;9.154;2022-10-18T06:09:47;18.50;99.90
2024;DHT22;1016;48.770;9.154;2022-10-18T06:12:13;18.50;99.90
2024;DHT22;1016;48.770;9.154;2022-10-18T06:14:38;18.50;99.90
2024;DHT22;1016;48.770;9.154;2022-10-18T06:17:04;18.60;99.90
2024;DHT22;1016;48.770;9.154;2022-10-18T06:19:29;18.50;99.90
2024;DHT22;1016;48.770;9.154;2022-10-18T06:21:55;18.50;99.90
2024;DHT22;1016;48.770;9.154;2022-10-18T06:24:20;18.50;99.90
2024;DHT22;1016;48.770;9.154;2022-10-18T06:26:46;18.50;99.90
2024;DHT22;1016;48.770;9.154;2022-10-18T06:29:12;18.60;99.90
2024;DHT22;1016;48.770;9.154;2022-10-18T06:31:38;18.60;99.90
2024;DHT22;1016;48.770;9.154;2022-10-18T06:34:04;18.70;99.90
2024;DHT22;1016;48.770;9.154;2022-10-18T06:36:29;18.70;99.90
2024;DHT22;1016;48.770;9.154;2022-10-18T06:38:55;18.80;99.90
2024;DHT22;1016;48.770;9.154;2022-10-18T06:41:21;18.80;99.90
2024;DHT22;1016;48.770;9.154;2022-10-18T06:43:48;18.80;99.90
2024;DHT22;1016;48.770;9.154;2022-10-18T06:46:14;18.90;99.90
2024;DHT22;1016;48.770;9.154;2022-10-18T06:48:39;19.00;99.90
2024;DHT22;1016;48.770;9.154;2022-10-18T06:51:06;19.00;99.90
2024;DHT22;1016;48.770;9.154;2022-10-18T06:53:35;19.00;99.90
2024;DHT22;1016;48.770;9.154;2022-10-18T06:56:03;19.10;99.90
2024;DHT22;1016;48.770;9.154;2022-10-18T06:58:29;19.20;99.90
2024;DHT22;1016;48.770;9.154;2022-10-18T07:00:55;19.20;99.90
2024;DHT22;1016;48.770;9.154;2022-10-18T07:03:21;19.20;99.90
2024;DHT22;1016;48.770;9.154;2022-10-18T07:05:48;19.20;99.90
2024;DHT22;1016;48.770;9.154;2022-10-18T07:08:14;19.20;99.90
2024;DHT22;1016;48.770;9.154;2022-10-18T07:10:39;19.20;99.90
2024;DHT22;1016;48.770;9.154;2022-10-18T07:13:05;19.30;99.90
2024;DHT22;1016;48.770;9.154;2022-10-18T07:15:30;19.30;99.90
2024;DHT22;1016;48.770;9.154;2022-10-18T07:17:56;19.30;99.90
2024;DHT22;1016;48.770;9.154;2022-10-18T07:20:21;19.30;99.90
2024;DHT22;1016;48.770;9.154;2022-10-18T07:22:47;19.40;99.90
2024;DHT22;1016;48.770;9.154;2022-10-18T07:25:12;19.30;99.90
2024;DHT22;1016;48.770;9.154;2022-10-18T07:27:40;19.50;99.90
2024;DHT22;1016;48.770;9.154;2022-10-18T07:30:07;19.50;99.90
2024;DHT22;1016;48.770;9.154;2022-10-18T07:32:34;19.50;99.90
2024;DHT22;1016;48.770;9.154;2022-10-18T07:35:00;19.60;99.90
2024;DHT22;1016;48.770;9.154;2022-10-18T07:37:27;19.60;99.90
2024;DHT22;1016;48.770;9.154;2022-10-18T07:39:52;19.60;99.90
2024;DHT22;1016;48.770;9.154;2022-10-18T07:42:18;19.50;99.90
2024;DHT22;1016;48.770;9.154;2022-10-18T07:44:44;19.50;99.90
2024;DHT22;1016;48.770;9.154;2022-10-18T07:47:09;19.60;99.90
2024;DHT22;1016;48.770;9.154;2022-10-18T07:49:35;19.60;99.90
2024;DHT22;1016;48.770;9.154;2022-10-18T07:52:00;19.90;99.90
2024;DHT22;1016;48.770;9.154;2022-10-18T07:54:26;19.80;99.90
2024;DHT22;1016;48.770;9.154;2022-10-18T07:56:51;19.80;99.90
2024;DHT22;1016;48.770;9.154;2022-10-18T07:59:17;19.80;99.90
2024;DHT22;1016;48.770;9.154;2022-10-18T08:01:42;20.00;99.90
2024;DHT22;1016;48.770;9.154;2022-10-18T08:04:08;20.00;99.90
2024;DHT22;1016;48.770;9.154;2022-10-18T08:06:34;20.10;99.90
2024;DHT22;1016;48.770;9.154;2022-10-18T08:08:59;20.00;99.90
2024;DHT22;1016;48.770;9.154;2022-10-18T08:11:25;20.00;99.90
2024;DHT22;1016;48.770;9.154;2022-10-18T08:13:52;20.00;99.90
2024;DHT22;1016;48.770;9.154;2022-10-18T08:16:22;20.10;99.90
2024;DHT22;1016;48.770;9.154;2022-10-18T08:18:48;20.10;99.90
2024;DHT22;1016;48.770;9.154;2022-10-18T08:21:15;20.10;99.90
2024;DHT22;1016;48.770;9.154;2022-10-18T08:23:41;20.10;99.90
2024;DHT22;1016;48.770;9.154;2022-10-18T08:26:14;20.10;99.90
2024;DHT22;1016;48.770;9.154;2022-10-18T08:28:39;20.20;99.90
2024;DHT22;1016;48.770;9.154;2022-10-18T08:31:07;20.20;99.90
2024;DHT22;1016;48.770;9.154;2022-10-18T08:33:33;20.30;99.90
2024;DHT22;1016;48.770;9.154;2022-10-18T08:36:01;20.30;99.90
2024;DHT22;1016;48.770;9.154;2022-10-18T08:38:31;20.30;99.90
2024;DHT22;1016;48.770;9.154;2022-10-18T08:44:09;20.40;99.90
2024;DHT22;1016;48.770;9.154;2022-10-18T08:46:40;20.40;99.90
2024;DHT22;1016;48.770;9.154;2022-10-18T08:49:16;20.40;99.90
2024;DHT22;1016;48.770;9.154;2022-10-18T08:51:45;20.40;99.90
2024;DHT22;1016;48.770;9.154;2022-10-18T08:54:29;20.40;99.90
2024;DHT22;1016;48.770;9.154;2022-10-18T08:56:58;20.40;99.90
2024;DHT22;1016;48.770;9.154;2022-10-18T08:59:25;20.40;99.90
2024;DHT22;1016;48.770;9.154;2022-10-18T09:13:29;20.40;99.90
2024;DHT22;1016;48.770;9.154;2022-10-18T09:16:00;20.50;99.90
2024;DHT22;1016;48.770;9.154;2022-10-18T09:21:16;20.70;99.90
2024;DHT22;1016;48.770;9.154;2022-10-18T09:23:48;20.90;99.90
2024;DHT22;1016;48.770;9.154;2022-10-18T09:26:17;20.80;99.90
2024;DHT22;1016;48.770;9.154;2022-10-18T09:28:59;20.90;99.90
2024;DHT22;1016;48.770;9.154;2022-10-18T09:32:03;21.00;99.90
2024;DHT22;1016;48.770;9.154;2022-10-18T09:34:38;21.10;99.90
2024;DHT22;1016;48.770;9.154;2022-10-18T09:37:12;21.20;99.90
2024;DHT22;1016;48.770;9.154;2022-10-18T09:39:40;21.30;99.90
2024;DHT22;1016;48.770;9.154;2022-10-18T09:42:38;21.30;99.90
2024;DHT22;1016;48.770;9.154;2022-10-18T09:47:56;21.20;99.90
2024;DHT22;1016;48.770;9.154;2022-10-18T09:50:34;21.20;99.90
2024;DHT22;1016;48.770;9.154;2022-10-18T09:55:59;21.20;99.90
2024;DHT22;1016;48.770;9.154;2022-10-18T09:58:32;21.20;99.90
2024;DHT22;1016;48.770;9.154;2022-10-18T10:01:02;21.10;99.90
2024;DHT22;1016;48.770;9.154;2022-10-18T10:03:34;21.10;99.90
2024;DHT22;1016;48.770;9.154;2022-10-18T10:08:47;21.00;99.90
2024;DHT22;1016;48.770;9.154;2022-10-18T10:11:32;21.00;99.90
2024;DHT22;1016;48.770;9.154;2022-10-18T10:14:28;20.90;99.90
2024;DHT22;1016;48.770;9.154;2022-10-18T10:19:52;20.90;99.90
2024;DHT22;1016;48.770;9.154;2022-10-18T10:22:26;20.80;99.90
2024;DHT22;1016;48.770;9.154;2022-10-18T10:24:56;20.70;99.90
2024;DHT22;1016;48.770;9.154;2022-10-18T10:27:42;20.80;99.90
2024;DHT22;1016;48.770;9.154;2022-10-18T10:30:32;20.60;99.90
2024;DHT22;1016;48.770;9.154;2022-10-18T10:32:57;20.80;99.90
2024;DHT22;1016;48.770;9.154;2022-10-18T10:35:32;20.70;99.90
2024;DHT22;1016;48.770;9.154;2022-10-18T10:37:58;20.80;99.90
2024;DHT22;1016;48.770;9.154;2022-10-18T10:40:28;20.80;99.90
2024;DHT22;1016;48.770;9.154;2022-10-18T10:43:23;20.80;99.90
2024;DHT22;1016;48.770;9.154;2022-10-18T10:46:07;20.90;99.90
2024;DHT22;1016;48.770;9.154;2022-10-18T10:48:54;20.90;99.90
2024;DHT22;1016;48.770;9.154;2022-10-18T10:51:34;20.90;99.90
2024;DHT22;1016;48.770;9.154;2022-10-18T10:54:12;20.90;99.90
2024;DHT22;1016;48.770;9.154;2022-10-18T10:57:04;20.90;99.90
2024;DHT22;1016;48.770;9.154;2022-10-18T10:59:45;21.00;99.90
2024;DHT22;1016;48.770;9.154;2022-10-18T11:04:51;20.90;99.90
2024;DHT22;1016;48.770;9.154;2022-10-18T11:07:44;20.80;99.90
2024;DHT22;1016;48.770;9.154;2022-10-18T11:12:44;20.90;99.90
2024;DHT22;1016;48.770;9.154;2022-10-18T11:17:45;20.90;99.90
2024;DHT22;1016;48.770;9.154;2022-10-18T11:22:56;20.90;99.90
2024;DHT22;1016;48.770;9.154;2022-10-18T11:25:31;21.00;99.90
2024;DHT22;1016;48.770;9.154;2022-10-18T11:28:05;21.00;99.90
2024;DHT22;1016;48.770;9.154;2022-10-18T11:34:02;21.10;99.90
2024;DHT22;1016;48.770;9.154;2022-10-18T11:36:37;21.10;99.90
2024;DHT22;1016;48.770;9.154;2022-10-18T11:42:02;21.10;99.90
2024;DHT22;1016;48.770;9.154;2022-10-18T11:50:12;21.20;99.90
2024;DHT22;1016;48.770;9.154;2022-10-18T11:53:11;21.20;99.90
2024;DHT22;1016;48.770;9.154;2022-10-18T11:56:31;21.20;99.90
2024;DHT22;1016;48.770;9.154;2022-10-18T12:01:13;21.30;99.90
2024;DHT22;1016;48.770;9.154;2022-10-18T12:04:07;21.30;99.90
2024;DHT22;1016;48.770;9.154;2022-10-18T12:06:39;21.30;99.90
2024;DHT22;1016;48.770;9.154;2022-10-18T12:12:00;21.20;99.90
2024;DHT22;1016;48.770;9.154;2022-10-18T12:14:45;21.20;99.90
2024;DHT22;1016;48.770;9.154;2022-10-18T12:19:52;21.30;99.90
2024;DHT22;1016;48.770;9.154;2022-10-18T12:22:24;21.30;99.90
2024;DHT22;1016;48.770;9.154;2022-10-18T12:24:52;21.30;99.90
2024;DHT22;1016;48.770;9.154;2022-10-18T12:27:18;21.30;99.90
2024;DHT22;1016;48.770;9.154;2022-10-18T12:29:57;21.30;99.90
2024;DHT22;1016;48.770;9.154;2022-10-18T12:32:26;21.30;99.90
2024;DHT22;1016;48.770;9.154;2022-10-18T12:34:57;21.40;99.90
2024;DHT22;1016;48.770;9.154;2022-10-18T12:42:58;21.50;99.90
2024;DHT22;1016;48.770;9.154;2022-10-18T12:45:34;22.10;
2024;DHT22;1016;48.770;9.154;2022-10-18T12:51:24;22.60;99.90
2024;DHT22;1016;48.770;9.154;2022-10-18T13:09:24;22.30;99.90
2024;DHT22;1016;48.770;9.154;2022-10-18T13:11:53;22.30;99.90
2024;DHT22;1016;48.770;9.154;2022-10-18T13:14:34;22.20;99.90
2024;DHT22;1016;48.770;9.154;2022-10-18T13:28:29;22.20;99.90
2024;DHT22;1016;48.770;9.154;2022-10-18T13:33:42;22.50;99.90
2024;DHT22;1016;48.770;9.154;2022-10-18T13:44:26;23.00;99.90
2024;DHT22;1016;48.770;9.154;2022-10-18T13:49:26;22.80;99.90
2024;DHT22;1016;48.770;9.154;2022-10-18T13:57:44;22.70;99.90
2024;DHT22;1016;48.770;9.154;2022-10-18T14:00:35;22.70;99.90
2024;DHT22;1016;48.770;9.154;2022-10-18T14:06:15;23.40;99.90
2024;DHT22;1016;48.770;9.154;2022-10-18T14:11:26;24.00;99.90
2024;DHT22;1016;48.770;9.154;2022-10-18T14:13:56;24.00;99.90
2024;DHT22;1016;48.770;9.154;2022-10-18T14:16:36;23.80;99.90
2024;DHT22;1016;48.770;9.154;2022-10-18T14:19:13;23.50;99.90
2024;DHT22;1016;48.770;9.154;2022-10-18T14:21:48;23.20;99.90
2024;DHT22;1016;48.770;9.154;2022-10-18T14:24:22;22.90;99.90
2024;DHT22;1016;48.770;9.154;2022-10-18T14:27:14;22.90;99.90
2024;DHT22;1016;48.770;9.154;2022-10-18T14:29:40;22.70;99.90
2024;DHT22;1016;48.770;9.154;2022-10-18T14:32:16;22.60;99.90
2024;DHT22;1016;48.770;9.154;2022-10-18T14:34:43;22.60;99.90
2024;DHT22;1016;48.770;9.154;2022-10-18T14:37:28;22.40;99.90
2024;DHT22;1016;48.770;9.154;2022-10-18T14:39:54;22.30;99.90
2024;DHT22;1016;48.770;9.154;2022-10-18T14:42:24;22.20;99.90
2024;DHT22;1016;48.770;9.154;2022-10-18T14:44:51;22.10;99.90
2024;DHT22;1016;48.770;9.154;2022-10-18T14:47:25;22.10;99.90
2024;DHT22;1016;48.770;9.154;2022-10-18T14:49:51;22.10;99.90
2024;DHT22;1016;48.770;9.154;2022-10-18T14:52:29;22.10;99.90
2024;DHT22;1016;48.770;9.154;2022-10-18T14:54:55;22.20;99.90
2024;DHT22;1016;48.770;9.154;2022-10-18T14:57:30;22.20;99.90
2024;DHT22;1016;48.770;9.154;2022-10-18T14:59:58;22.20;99.90
2024;DHT22;1016;48.770;9.154;2022-10-18T15:02:31;22.30;99.90
2024;DHT22;1016;48.770;9.154;2022-10-18T15:05:06;22.30;99.90
2024;DHT22;1016;48.770;9.154;2022-10-18T15:07:32;22.30;99.90
2024;DHT22;1016;48.770;9.154;2022-10-18T15:09:59;22.30;99.90
2024;DHT22;1016;48.770;9.154;2022-10-18T15:12:28;22.30;99.90
2024;DHT22;1016;48.770;9.154;2022-10-18T15:14:54;22.30;99.90
2024;DHT22;1016;48.770;9.154;2022-10-18T15:17:24;22.30;99.90
2024;DHT22;1016;48.770;9.154;2022-10-18T15:20:01;22.30;99.90
2024;DHT22;1016;48.770;9.154;2022-10-18T15:22:30;22.20;99.90
2024;DHT22;1016;48.770;9.154;2022-10-18T15:25:20;22.20;99.90
2024;DHT22;1016;48.770;9.154;2022-10-18T15:27:54;22.10;99.90
2024;DHT22;1016;48.770;9.154;2022-10-18T15:30:47;22.00;99.90
2024;DHT22;1016;48.770;9.154;2022-10-18T15:33:21;22.00;99.90
2024;DHT22;1016;48.770;9.154;2022-10-18T15:35:47;22.00;99.90
2024;DHT22;1016;48.770;9.154;2022-10-18T15:40:40;21.80;99.90
2024;DHT22;1016;48.770;9.154;2022-10-18T15:45:56;21.70;99.90
2024;DHT22;1016;48.770;9.154;2022-10-18T15:48:27;21.70;99.90
2024;DHT22;1016;48.770;9.154;2022-10-18T15:51:00;21.60;99.90
2024;DHT22;1016;48.770;9.154;2022-10-18T15:58:49;21.50;99.90
2024;DHT22;1016;48.770;9.154;2022-10-18T16:01:19;21.50;99.90
2024;DHT22;1016;48.770;9.154;2022-10-18T16:03:46;21.50;99.90
2024;DHT22;1016;48.770;9.154;2022-10-18T16:06:13;21.50;99.90
2024;DHT22;1016;48.770;9.154;2022-10-18T16:08:41;21.50;99.90
2024;DHT22;1016;48.770;9.154;2022-10-18T16:11:27;21.50;99.90
2024;DHT22;1016;48.770;9.154;2022-10-18T16:13:54;21.40;99.90
2024;DHT22;1016;48.770;9.154;2022-10-18T16:16:22;21.30;99.90
2024;DHT22;1016;48.770;9.154;2022-10-18T16:18:48;21.40;99.90
2024;DHT22;1016;48.770;9.154;2022-10-18T16:21:32;21.30;99.90
2024;DHT22;1016;48.770;9.154;2022-10-18T16:23:58;21.20;99.90
2024;DHT22;1016;48.770;9.154;2022-10-18T16:26:24;21.20;99.90
2024;DHT22;1016;48.770;9.154;2022-10-18T16:28:50;21.20;99.90
2024;DHT22;1016;48.770;9.154;2022-10-18T16:31:26;21.10;99.90
2024;DHT22;1016;48.770;9.154;2022-10-18T16:33:53;21.10;99.90
2024;DHT22;1016;48.770;9.154;2022-10-18T16:36:22;21.00;99.90
2024;DHT22;1016;48.770;9.154;2022-10-18T16:38:48;20.90;99.90
2024;DHT22;1016;48.770;9.154;2022-10-18T16:41:14;20.80;99.90
2024;DHT22;1016;48.770;9.154;2022-10-18T16:43:44;20.70;99.90
2024;DHT22;1016;48.770;9.154;2022-10-18T16:46:31;20.60;99.90
2024;DHT22;1016;48.770;9.154;2022-10-18T16:48:57;20.50;99.90
2024;DHT22;1016;48.770;9.154;2022-10-18T16:51:23;20.40;99.90
2024;DHT22;1016;48.770;9.154;2022-10-18T16:53:49;20.30;99.90
2024;DHT22;1016;48.770;9.154;2022-10-18T16:56:27;20.20;99.90
2024;DHT22;1016;48.770;9.154;2022-10-18T16:58:55;20.10;99.90
2024;DHT22;1016;48.770;9.154;2022-10-18T17:01:22;20.10;99.90
2024;DHT22;1016;48.770;9.154;2022-10-18T17:03:48;20.00;99.90
2024;DHT22;1016;48.770;9.154;2022-10-18T17:06:25;20.00;99.90
2024;DHT22;1016;48.770;9.154;2022-10-18T17:08:52;20.00;99.90
2024;DHT22;1016;48.770;9.154;2022-10-18T17:11:19;19.90;99.90
2024;DHT22;1016;48.770;9.154;2022-10-18T17:13:45;19.90;99.90
2024;DHT22;1016;48.770;9.154;2022-10-18T17:16:27;19.90;99.90
2024;DHT22;1016;48.770;9.154;2022-10-18T17:18:54;19.80;99.90
2024;DHT22;1016;48.770;9.154;2022-10-18T17:21:21;19.80;99.90
2024;DHT22;1016;48.770;9.154;2022-10-18T17:23:48;19.70;99.90
2024;DHT22;1016;48.770;9.154;2022-10-18T17:26:15;19.70;99.90
2024;DHT22;1016;48.770;9.154;2022-10-18T17:28:42;19.60;99.90
2024;DHT22;1016;48.770;9.154;2022-10-18T17:31:07;19.60;99.90
2024;DHT22;1016;48.770;9.154;2022-10-18T17:33:33;19.60;99.90
2024;DHT22;1016;48.770;9.154;2022-10-18T17:35:58;19.50;99.90
2024;DHT22;1016;48.770;9.154;2022-10-18T17:38:24;19.50;99.90
2024;DHT22;1016;48.770;9.154;2022-10-18T17:40:50;19.40;99.90
2024;DHT22;1016;48.770;9.154;2022-10-18T17:43:17;19.40;99.90
2024;DHT22;1016;48.770;9.154;2022-10-18T17:45:47;19.30;99.90
2024;DHT22;1016;48.770;9.154;2022-10-18T17:48:12;19.30;99.90
2024;DHT22;1016;48.770;9.154;2022-10-18T17:50:41;19.20;99.90
2024;DHT22;1016;48.770;9.154;2022-10-18T17:53:06;19.20;99.90
2024;DHT22;1016;48.770;9.154;2022-10-18T17:55:35;19.10;99.90
2024;DHT22;1016;48.770;9.154;2022-10-18T17:58:01;19.10;99.90
2024;DHT22;1016;48.770;9.154;2022-10-18T18:00:26;19.10;99.90
2024;DHT22;1016;48.770;9.154;2022-10-18T18:02:56;19.00;99.90
2024;DHT22;1016;48.770;9.154;2022-10-18T18:05:21;19.00;99.90
2024;DHT22;1016;48.770;9.154;2022-10-18T18:07:47;19.00;99.90
2024;DHT22;1016;48.770;9.154;2022-10-18T18:10:13;19.00;99.90
2024;DHT22;1016;48.770;9.154;2022-10-18T18:12:38;19.00;99.90
2024;DHT22;1016;48.770;9.154;2022-10-18T18:15:04;18.90;99.90
2024;DHT22;1016;48.770;9.154;2022-10-18T18:17:30;18.90;99.90
2024;DHT22;1016;48.770;9.154;2022-10-18T18:19:55;18.80;99.90
2024;DHT22;1016;48.770;9.154;2022-10-18T18:22:21;18.80;99.90
2024;DHT22;1016;48.770;9.154;2022-10-18T18:24:46;18.70;99.90
2024;DHT22;1016;48.770;9.154;2022-10-18T18:27:12;18.70;99.90
2024;DHT22;1016;48.770;9.154;2022-10-18T18:29:37;18.70;99.90
2024;DHT22;1016;48.770;9.154;2022-10-18T18:32:03;18.70;99.90
2024;DHT22;1016;48.770;9.154;2022-10-18T18:34:28;18.60;99.90
2024;DHT22;1016;48.770;9.154;2022-10-18T18:36:54;18.60;99.90
2024;DHT22;1016;48.770;9.154;2022-10-18T18:39:22;18.50;99.90
2024;DHT22;1016;48.770;9.154;2022-10-18T18:41:50;18.50;99.90
2024;DHT22;1016;48.770;9.154;2022-10-18T18:44:17;18.50;99.90
2024;DHT22;1016;48.770;9.154;2022-10-18T18:46:43;18.40;99.90